Time;durP1;ratioP1;P1;durP2;ratioP2;P2;SDS_P1;SDS_P2;PMS_P1;PMS_P2;Temp;Humidity;BMP_temperature;BMP_pressure;BME280_temperature;BME280_humidity;BME280_pressure;Samples;Min_cycle;Max_cycle;Signal;HPM_P1;HPM_P2
2023/05/04 00:01:58;;;;;;;6.20;4.00;;;9.30;68.40;;;8.93;62.22;98592.00;5104665;28;20439;-72
2023/05/04 00:04:25;;;;;;;4.23;3.53;;;9.30;68.60;;;8.87;62.52;98590.06;5081151;28;20451;-75
2023/05/04 00:06:52;;;;;;;4.83;4.10;;;9.20;68.60;;;8.83;62.15;98586.09;5081917;28;20460;-74
2023/05/04 00:09:21;;;;;;;7.13;4.33;;;9.20;68.80;;;8.11;62.55;98492.41;5063497;28;20947;-77
2023/05/04 00:11:48;;;;;;;4.20;3.70;;;9.20;69.00;;;8.68;62.46;98586.97;5078764;28;20795;-74
2023/05/04 00:14:16;;;;;;;7.00;4.30;;;9.10;68.90;;;8.63;62.51;98581.31;5075392;28;20902;-73
2023/05/04 00:16:43;;;;;;;3.70;2.87;;;9.10;69.10;;;8.61;63.30;98576.09;5057842;28;20471;-73
2023/05/04 00:19:10;;;;;;;5.73;3.70;;;9.00;69.30;;;8.59;62.41;98586.22;5062152;28;20456;-74
2023/05/04 00:21:38;;;;;;;12.53;4.40;;;9.10;69.30;;;8.59;62.96;98590.81;5076861;28;20487;-74
2023/05/04 00:24:06;;;;;;;4.17;3.77;;;9.00;69.30;;;8.56;63.29;98583.06;5068098;28;20477;-75
2023/05/04 00:26:34;;;;;;;4.90;4.30;;;9.00;69.40;;;8.53;62.52;98578.06;5082773;28;20443;-75
2023/05/04 00:29:02;;;;;;;5.90;4.00;;;9.00;69.50;;;8.51;63.07;98583.66;5065947;28;20451;-75
2023/05/04 00:31:29;;;;;;;4.90;4.00;;;8.90;69.50;;;8.46;63.53;98576.13;5091047;28;20460;-75
2023/05/04 00:33:56;;;;;;;5.00;3.67;;;8.90;69.90;;;8.22;63.07;98558.41;5086398;28;20454;-74
2023/05/04 00:36:24;;;;;;;9.73;4.00;;;8.80;69.80;;;8.40;63.33;98578.72;5078739;28;20549;-74
2023/05/04 00:38:54;;;;;;;4.60;3.90;;;8.80;69.90;;;8.40;63.26;98570.63;5066829;28;20478;-74
2023/05/04 00:41:22;;;;;;;5.43;4.20;;;8.80;70.10;;;8.28;63.71;98563.03;5077417;28;20528;-75
2023/05/04 00:43:50;;;;;;;5.70;3.93;;;8.70;70.20;;;8.26;63.52;98559.69;5076695;28;20461;-74
2023/05/04 00:46:18;;;;;;;6.27;4.63;;;8.70;70.40;;;8.21;63.76;98554.88;5057474;28;20791;-74
2023/05/04 00:48:50;;;;;;;4.90;3.77;;;8.60;70.50;;;8.19;64.31;98562.31;5077844;28;20498;-75
2023/05/04 00:51:20;;;;;;;9.13;4.20;;;8.60;70.90;;;7.50;64.28;98456.66;5079597;28;20549;-73
2023/05/04 00:53:48;;;;;;;5.40;4.10;;;8.60;71.10;;;7.69;64.69;98494.75;5059728;28;20455;-73
2023/05/04 00:56:16;;;;;;;4.63;4.20;;;8.50;71.30;;;8.03;65.09;98559.81;5077269;28;20478;-75
2023/05/04 00:58:44;;;;;;;6.67;4.47;;;8.40;71.80;;;7.91;65.58;98557.56;5080782;28;20471;-73
2023/05/04 01:01:12;;;;;;;6.37;4.10;;;8.30;72.30;;;7.69;65.87;98526.22;5074456;28;21151;-73
2023/05/04 01:03:39;;;;;;;6.93;4.20;;;8.30;73.10;;;7.76;66.51;98556.72;5077701;28;20466;-74
2023/05/04 01:06:18;;;;;;;4.13;3.73;;;8.20;73.40;;;7.71;66.31;98553.75;5076112;28;20957;-73
2023/05/04 01:08:53;;;;;;;6.07;4.60;;;8.10;73.50;;;7.67;66.80;98560.53;5077281;28;20467;-73
2023/05/04 01:11:31;;;;;;;4.77;4.27;;;8.10;73.90;;;7.58;67.37;98554.38;5060963;28;20470;-74
2023/05/04 01:14:00;;;;;;;8.67;5.10;;;7.90;74.30;;;7.27;67.24;98523.91;5077770;28;20470;-73
2023/05/04 01:16:28;;;;;;;5.50;4.40;;;7.80;75.00;;;7.33;67.92;98552.75;5051491;28;20567;-73
2023/05/04 01:18:56;;;;;;;6.10;4.17;;;7.60;75.30;;;7.33;68.13;98560.81;5074943;28;20459;-73
2023/05/04 01:21:23;;;;;;;6.00;4.50;;;7.50;75.70;;;7.32;68.17;98556.44;5078611;28;20835;-76
2023/05/04 01:23:51;;;;;;;5.63;4.30;;;7.50;76.10;;;7.09;68.59;98543.88;5061793;28;20486;-75
2023/05/04 01:26:25;;;;;;;5.23;4.70;;;7.40;76.30;;;6.98;69.40;98565.78;5081770;28;20528;-75
2023/05/04 01:29:01;;;;;;;5.13;4.60;;;7.30;76.80;;;6.81;70.24;98562.38;5090383;28;20486;-75
2023/05/04 01:31:30;;;;;;;7.37;4.37;;;7.10;77.60;;;6.57;70.60;98529.31;5096751;28;20467;-75
2023/05/04 01:33:57;;;;;;;7.00;4.83;;;7.00;78.50;;;6.77;69.90;98536.88;5090543;28;20443;-74
2023/05/04 01:36:25;;;;;;;5.80;3.57;;;7.10;78.40;;;7.03;69.35;98555.34;5077032;28;20475;-74
2023/05/04 01:38:57;;;;;;;5.00;4.50;;;7.20;78.10;;;6.97;69.04;98539.94;5057514;28;20987;-74
2023/05/04 01:41:24;;;;;;;7.80;4.43;;;7.30;77.90;;;7.00;69.27;98538.75;5075025;28;20545;-73
2023/05/04 01:43:51;;;;;;;5.83;4.60;;;7.30;77.80;;;7.04;69.45;98551.63;5076341;28;20930;-75
2023/05/04 01:46:18;;;;;;;6.77;5.07;;;7.30;77.70;;;6.91;69.62;98541.50;5051423;28;21106;-74
2023/05/04 01:48:45;;;;;;;7.30;4.20;;;7.30;77.90;;;6.89;69.91;98556.09;5058725;28;20510;-74
2023/05/04 01:51:13;;;;;;;6.50;4.60;;;7.30;78.10;;;6.86;70.23;98554.63;5074995;28;20443;-75
2023/05/04 01:53:40;;;;;;;7.40;4.73;;;7.20;77.90;;;6.75;70.63;98546.97;5070918;28;20670;-75
2023/05/04 01:56:10;;;;;;;4.93;4.43;;;7.10;78.50;;;6.68;70.92;98552.22;5056613;28;20557;-73
2023/05/04 01:58:37;;;;;;;5.63;4.40;;;7.00;79.00;;;6.72;70.95;98558.09;5080126;28;20521;-75
2023/05/04 02:01:05;;;;;;;6.30;4.43;;;6.90;79.40;;;6.71;71.36;98562.59;5076165;28;20487;-74
2023/05/04 02:03:33;;;;;;;7.10;5.07;;;6.90;79.60;;;6.60;71.47;98549.59;5083194;28;20554;-74
2023/05/04 02:06:00;;;;;;;6.43;4.43;;;7.00;79.30;;;6.41;71.63;98529.41;5078868;28;20518;-74
2023/05/04 02:08:27;;;;;;;6.20;4.87;;;7.00;79.30;;;6.62;71.93;98553.75;5073320;28;20470;-74
2023/05/04 02:10:55;;;;;;;7.50;5.13;;;6.90;79.80;;;6.62;71.71;98555.63;5050274;28;20448;-75
2023/05/04 02:13:24;;;;;;;6.57;5.30;;;6.90;79.90;;;6.55;71.48;98552.81;5073333;28;20444;-75
2023/05/04 02:15:51;;;;;;;5.77;4.43;;;6.90;80.10;;;6.33;72.19;98541.00;5076513;28;20805;-73
2023/05/04 02:18:18;;;;;;;6.10;4.30;;;6.80;80.40;;;6.41;72.18;98540.94;5059319;28;20445;-76
2023/05/04 02:20:45;;;;;;;10.37;5.30;;;6.80;80.80;;;6.31;72.10;98534.97;5068626;28;20454;-73
2023/05/04 02:23:13;;;;;;;6.67;5.07;;;6.80;80.80;;;6.36;72.52;98552.22;5073115;28;20449;-73
2023/05/04 02:25:40;;;;;;;8.20;5.17;;;6.80;80.90;;;6.35;72.88;98549.72;5057639;28;20447;-75
2023/05/04 02:28:08;;;;;;;7.23;4.93;;;6.70;80.90;;;6.36;72.68;98546.03;5064865;28;20496;-74
2023/05/04 02:30:36;;;;;;;6.50;5.03;;;6.70;81.30;;;6.35;72.62;98547.03;5086684;28;20471;-73
2023/05/04 02:33:04;;;;;;;6.50;4.33;;;6.70;81.30;;;6.12;73.29;98522.81;5067577;28;20936;-73
2023/05/04 02:35:31;;;;;;;5.03;4.10;;;6.60;81.30;;;6.26;73.45;98548.91;5083631;28;20528;-74
2023/05/04 02:37:58;;;;;;;7.23;5.50;;;6.70;81.60;;;6.28;73.38;98546.03;5083334;28;20446;-74
2023/05/04 02:40:25;;;;;;;6.90;5.13;;;6.70;81.60;;;6.14;73.08;98518.97;5088772;28;20766;-74
2023/05/04 02:42:52;;;;;;;6.50;4.90;;;6.60;81.80;;;6.14;73.63;98528.84;5088362;28;20461;-73
2023/05/04 02:45:20;;;;;;;6.20;5.00;;;6.60;81.80;;;6.15;73.61;98541.25;5064119;28;20488;-72
2023/05/04 02:47:48;;;;;;;6.53;5.00;;;6.50;82.10;;;6.17;74.08;98533.84;5077192;28;20451;-74
2023/05/04 02:50:15;;;;;;;10.47;5.07;;;6.50;82.70;;;6.04;74.17;98534.41;5072747;28;20442;-73
2023/05/04 02:52:43;;;;;;;7.27;5.20;;;6.30;82.70;;;5.98;74.56;98530.56;5097870;28;20577;-71
2023/05/04 02:55:10;;;;;;;8.10;6.03;;;6.30;84.10;;;5.94;75.36;98524.69;5101100;28;20452;-72
2023/05/04 02:57:38;;;;;;;6.90;5.20;;;6.20;84.40;;;5.95;75.33;98537.09;5101671;28;20447;-72
2023/05/04 03:00:06;;;;;;;5.83;4.53;;;6.20;84.50;;;5.98;74.86;98532.38;5071142;28;21018;-73
2023/05/04 03:02:34;;;;;;;5.17;4.67;;;6.20;85.00;;;6.01;74.52;98537.44;5062915;28;20462;-74
2023/05/04 03:05:02;;;;;;;5.37;4.53;;;6.20;84.50;;;5.92;75.34;98540.13;5059752;28;20463;-74
2023/05/04 03:07:30;;;;;;;6.10;5.10;;;6.20;85.00;;;5.96;75.33;98548.66;5078933;28;20452;-73
2023/05/04 03:09:57;;;;;;;7.30;5.77;;;6.20;85.70;;;5.95;74.99;98539.78;5078077;28;20961;-74
2023/05/04 03:12:25;;;;;;;6.90;4.83;;;6.20;85.30;;;5.94;75.23;98538.09;5080427;28;20455;-74
2023/05/04 03:14:52;;;;;;;5.80;4.63;;;6.20;85.30;;;6.01;75.07;98540.09;5058841;28;20512;-74
2023/05/04 03:17:19;;;;;;;6.73;5.40;;;6.30;84.80;;;5.97;75.07;98539.59;5079499;28;21027;-73
2023/05/04 03:19:47;;;;;;;7.93;4.80;;;6.30;84.70;;;5.88;75.28;98535.25;5057008;28;20458;-73
2023/05/04 03:22:15;;;;;;;7.53;5.53;;;6.20;85.20;;;5.87;75.22;98541.63;5075932;28;20464;-74
2023/05/04 03:24:42;;;;;;;10.13;6.00;;;6.10;85.10;;;5.62;75.30;98493.47;5054848;28;20721;-74
2023/05/04 03:27:09;;;;;;;7.27;5.40;;;6.20;85.50;;;5.66;75.69;98487.56;5076007;28;20475;-74
2023/05/04 03:29:37;;;;;;;8.30;5.80;;;6.20;85.80;;;5.86;75.65;98527.41;5082563;28;20447;-74
2023/05/04 03:32:05;;;;;;;7.10;5.30;;;6.20;85.70;;;5.86;75.42;98522.06;5061994;28;20822;-74
2023/05/04 03:34:32;;;;;;;6.73;4.70;;;6.20;85.60;;;5.93;75.62;98554.38;5065319;28;20786;-74
2023/05/04 03:37:00;;;;;;;7.70;5.60;;;6.20;85.50;;;5.94;75.66;98548.81;5083705;28;20493;-74
2023/05/04 03:39:28;;;;;;;7.07;5.97;;;6.20;85.50;;;5.93;75.57;98547.16;5078077;28;20504;-73
2023/05/04 03:41:56;;;;;;;7.60;5.20;;;6.20;86.00;;;6.00;74.79;98557.22;5074945;28;20556;-75
2023/05/04 03:44:23;;;;;;;6.47;4.40;;;6.20;85.50;;;6.02;74.59;98552.53;5049381;28;20807;-75
2023/05/04 03:46:50;;;;;;;6.90;4.73;;;6.20;85.20;;;6.06;74.74;98541.25;5073340;28;20471;-75
2023/05/04 03:49:18;;;;;;;6.47;5.30;;;6.30;85.10;;;6.10;74.94;98536.41;5077020;28;20463;-75
2023/05/04 03:51:45;;;;;;;6.83;4.90;;;6.30;84.80;;;6.02;74.89;98534.59;5074092;28;20499;-74
2023/05/04 03:54:12;;;;;;;6.83;5.27;;;6.30;84.80;;;5.89;74.77;98518.16;5063133;28;20447;-76
2023/05/04 03:56:41;;;;;;;7.00;5.13;;;6.40;84.30;;;6.11;74.40;98532.69;5067812;28;20554;-75
2023/05/04 03:59:08;;;;;;;6.40;4.57;;;6.40;84.20;;;6.14;74.47;98535.06;5057374;28;20558;-75
2023/05/04 04:01:36;;;;;;;6.73;5.07;;;6.40;84.10;;;6.13;73.93;98541.41;5075888;28;20815;-74
2023/05/04 04:04:03;;;;;;;7.37;4.80;;;6.50;83.70;;;6.21;74.10;98546.75;5058228;28;20492;-76
2023/05/04 04:06:30;;;;;;;6.87;4.70;;;6.50;83.60;;;6.31;73.74;98545.72;5055637;28;20445;-75
2023/05/04 04:08:58;;;;;;;10.67;5.20;;;6.60;83.50;;;6.33;73.87;98543.69;5062955;28;20457;-75
2023/05/04 04:11:25;;;;;;;7.00;6.13;;;6.60;83.00;;;6.33;73.21;98549.06;5078371;28;20496;-75
2023/05/04 04:13:53;;;;;;;7.90;5.20;;;6.70;82.80;;;6.36;73.47;98544.16;5076470;28;20961;-76
2023/05/04 04:16:21;;;;;;;9.47;6.37;;;6.80;82.40;;;6.44;73.41;98535.22;5073462;28;20489;-73
2023/05/04 04:18:48;;;;;;;6.57;5.10;;;6.80;82.50;;;6.49;72.75;98542.75;5077970;28;21003;-75
2023/05/04 04:21:16;;;;;;;7.80;5.50;;;6.90;82.00;;;6.57;72.79;98549.94;5066999;28;20466;-75
2023/05/04 04:23:43;;;;;;;7.10;5.27;;;6.90;81.80;;;6.80;71.43;98550.81;5059792;28;20463;-74
2023/05/04 04:26:10;;;;;;;7.40;5.57;;;7.20;81.20;;;6.72;69.97;98466.78;5061959;28;20504;-74
2023/05/04 04:28:37;;;;;;;9.27;5.80;;;7.60;79.70;;;7.44;69.49;98539.88;5076916;28;20455;-75
2023/05/04 04:31:06;;;;;;;7.43;5.10;;;7.90;78.90;;;7.58;68.40;98536.41;5075294;28;20464;-74
2023/05/04 04:33:33;;;;;;;7.47;5.33;;;8.20;77.90;;;8.16;66.79;98549.22;5079179;28;20471;-75
2023/05/04 04:36:01;;;;;;;9.03;5.00;;;8.60;77.50;;;8.13;66.56;98544.22;5079000;28;20475;-75
2023/05/04 04:38:28;;;;;;;7.43;5.20;;;8.70;76.40;;;8.08;66.10;98541.22;5093363;28;20516;-70
2023/05/04 04:40:56;;;;;;;6.27;4.57;;;8.70;75.80;;;8.40;64.33;98539.16;5071322;28;20527;-70
2023/05/04 04:43:23;;;;;;;4.47;3.63;;;9.10;75.00;;;8.81;63.47;98551.28;5075982;28;20460;-71
2023/05/04 04:45:52;;;;;;;9.63;5.40;;;9.50;74.10;;;8.96;63.47;98543.13;5075059;28;20459;-71
2023/05/04 04:48:24;;;;;;;7.10;5.10;;;9.50;73.70;;;9.14;61.94;98501.38;5065906;28;20545;-72
2023/05/04 04:50:51;;;;;;;5.73;4.27;;;9.90;72.80;;;9.31;61.19;98545.09;5084317;28;20446;-73
2023/05/04 04:53:19;;;;;;;7.07;5.40;;;10.20;70.40;;;9.45;60.90;98543.34;5073391;28;20464;-71
2023/05/04 04:55:46;;;;;;;6.10;3.90;;;10.30;69.80;;;9.37;61.67;98544.31;5058628;28;21009;-72
2023/05/04 04:58:13;;;;;;;6.80;4.70;;;10.20;69.30;;;9.60;60.80;98535.97;5071799;28;20537;-72
2023/05/04 05:00:40;;;;;;;5.23;4.37;;;10.50;68.50;;;9.66;60.10;98542.47;5058323;28;20480;-71
2023/05/04 05:03:09;;;;;;;6.30;4.87;;;10.50;68.00;;;9.22;61.02;98533.63;5061605;28;20460;-74
2023/05/04 05:05:37;;;;;;;5.43;4.70;;;10.30;68.10;;;9.70;60.42;98543.72;5082388;28;20444;-75
2023/05/04 05:08:05;;;;;;;6.70;5.30;;;10.50;68.00;;;9.66;60.55;98538.94;5069730;28;20457;-78
2023/05/04 05:10:32;;;;;;;5.60;4.90;;;10.50;67.50;;;9.43;60.46;98550.78;5075864;28;20541;-75
2023/05/04 05:12:59;;;;;;;4.47;4.03;;;10.30;67.50;;;9.70;59.78;98542.91;5063114;28;20455;-73
2023/05/04 05:15:27;;;;;;;6.47;5.13;;;10.50;67.40;;;10.05;59.06;98548.31;5075748;28;20464;-75
2023/05/04 05:17:54;;;;;;;7.40;4.87;;;10.70;67.70;;;9.90;58.38;98546.56;5070879;28;20477;-74
2023/05/04 05:20:22;;;;;;;6.20;4.97;;;10.70;66.40;;;9.61;60.13;98544.91;5072708;28;20470;-74
2023/05/04 05:22:51;;;;;;;6.40;4.33;;;10.50;66.60;;;9.67;59.73;98548.69;5056076;28;20566;-74
2023/05/04 05:25:19;;;;;;;6.10;4.70;;;10.40;67.20;;;9.82;60.20;98549.44;5072903;28;20650;-71
2023/05/04 05:27:46;;;;;;;5.33;4.63;;;10.30;67.40;;;10.10;58.67;98548.56;5060909;28;20992;-74
2023/05/04 05:30:14;;;;;;;6.00;3.83;;;10.70;66.80;;;10.43;57.17;98549.75;5067359;28;20869;-73
2023/05/04 05:32:41;;;;;;;5.60;4.37;;;11.10;65.30;;;10.43;57.99;98545.22;5076590;28;20456;-73
2023/05/04 05:35:09;;;;;;;4.63;4.20;;;11.10;65.10;;;10.96;55.91;98543.69;5075403;28;20459;-73
2023/05/04 05:37:37;;;;;;;5.87;4.97;;;11.40;64.50;;;11.23;55.19;98535.63;5067643;28;20930;-72
2023/05/04 05:40:07;;;;;;;6.07;4.50;;;11.70;63.70;;;11.32;54.14;98526.28;5071211;28;20555;-72
2023/05/04 05:42:35;;;;;;;5.43;4.30;;;12.20;62.60;;;11.26;54.40;98543.31;5069453;28;20443;-72
2023/05/04 05:45:03;;;;;;;7.50;4.17;;;12.10;61.00;;;11.51;54.08;98528.31;5052874;28;20455;-72
2023/05/04 05:47:30;;;;;;;7.60;4.70;;;12.20;61.40;;;11.76;53.84;98539.38;5068908;28;20447;-72
2023/05/04 05:49:58;;;;;;;6.20;3.80;;;12.30;61.20;;;12.60;51.06;98536.00;5076813;28;20455;-72
2023/05/04 05:52:25;;;;;;;5.00;3.80;;;13.00;59.50;;;11.97;52.48;98538.25;5054213;28;20452;-73
2023/05/04 05:54:53;;;;;;;5.37;4.07;;;13.00;58.80;;;12.78;51.03;98539.88;5057520;28;20466;-74
2023/05/04 05:57:21;;;;;;;4.70;4.30;;;13.50;58.20;;;12.21;51.49;98546.78;5074244;28;20462;-74
2023/05/04 05:59:49;;;;;;;5.53;4.20;;;13.30;57.10;;;11.27;53.55;98550.38;5078512;28;20549;-75
2023/05/04 06:02:16;;;;;;;6.47;4.10;;;12.40;57.50;;;10.76;55.49;98543.63;5079641;28;20451;-72
2023/05/04 06:04:44;;;;;;;5.00;4.50;;;11.70;58.90;;;10.47;56.14;98554.56;5080576;28;20470;-77
2023/05/04 06:07:12;;;;;;;5.73;4.50;;;11.30;60.10;;;10.29;56.50;98546.97;5085781;28;20459;-78
2023/05/04 06:09:39;;;;;;;5.90;4.50;;;11.00;60.70;;;10.15;57.29;98546.09;5070635;28;20462;-75
2023/05/04 06:12:12;;;;;;;6.03;4.13;;;10.80;61.40;;;10.10;57.86;98548.56;5098357;28;20478;-71
2023/05/04 06:14:41;;;;;;;4.93;3.83;;;10.70;62.10;;;10.25;57.33;98548.41;5084617;28;20447;-78
2023/05/04 06:17:08;;;;;;;3.80;3.40;;;10.70;62.80;;;10.40;57.26;98542.88;5086577;28;21013;-72
2023/05/04 06:19:36;;;;;;;7.30;4.60;;;10.80;62.80;;;10.35;57.33;98523.72;5087005;28;20458;-76
2023/05/04 06:22:04;;;;;;;5.50;4.20;;;10.90;62.70;;;10.69;56.48;98540.94;5076461;28;20552;-73
2023/05/04 06:24:32;;;;;;;5.17;4.40;;;11.00;62.40;;;10.88;56.47;98539.31;5086460;28;20459;-75
2023/05/04 06:26:59;;;;;;;3.93;3.53;;;11.20;62.60;;;10.93;55.63;98529.78;5075957;28;20470;-74
2023/05/04 06:29:26;;;;;;;5.17;4.20;;;11.40;62.30;;;11.17;56.15;98531.88;5083512;28;20464;-75
2023/05/04 06:31:55;;;;;;;6.00;3.70;;;11.50;62.30;;;11.50;55.07;98524.81;5088612;28;20457;-79
2023/05/04 06:34:22;;;;;;;5.70;4.10;;;11.70;62.40;;;11.82;54.19;98538.50;5091761;28;20930;-79
2023/05/04 06:36:50;;;;;;;4.87;4.13;;;12.00;62.00;;;12.01;53.97;98536.84;5062793;28;20475;-78
2023/05/04 06:39:17;;;;;;;4.90;4.47;;;12.20;61.10;;;12.14;53.50;98529.72;5089668;28;20474;-75
2023/05/04 06:41:45;;;;;;;5.60;4.53;;;12.40;60.60;;;12.02;53.98;98529.53;5071373;28;20451;-77
2023/05/04 06:44:12;;;;;;;5.07;4.00;;;12.40;60.60;;;12.27;53.14;98536.97;5072048;28;20944;-75
2023/05/04 06:46:39;;;;;;;5.93;4.23;;;12.60;60.50;;;12.38;52.72;98536.31;5089985;28;20803;-73
2023/05/04 06:49:08;;;;;;;5.00;4.17;;;12.70;59.70;;;12.51;52.60;98530.00;5083607;28;20465;-71
2023/05/04 06:51:36;;;;;;;5.20;3.93;;;12.80;59.80;;;12.86;51.40;98531.50;5076456;28;20439;-74
2023/05/04 06:54:03;;;;;;;4.87;4.37;;;13.10;59.30;;;12.64;52.17;98533.69;5060077;28;20457;-74
2023/05/04 06:56:32;;;;;;;5.20;4.30;;;13.10;59.00;;;12.86;51.73;98531.50;5057025;28;20440;-73
2023/05/04 06:58:59;;;;;;;4.90;3.93;;;13.10;58.90;;;12.69;52.48;98542.84;5056712;28;21000;-72
2023/05/04 07:01:26;;;;;;;4.43;3.90;;;13.10;59.00;;;12.95;51.56;98535.59;5059486;28;20826;-77
2023/05/04 07:03:57;;;;;;;4.23;3.53;;;13.20;58.90;;;12.96;51.04;98537.25;5081559;28;20468;-76
2023/05/04 07:06:26;;;;;;;4.60;4.00;;;13.30;58.40;;;12.88;52.13;98534.81;5085969;28;20458;-75
2023/05/04 07:08:53;;;;;;;4.60;4.03;;;13.30;58.80;;;12.63;51.64;98492.19;5087514;28;20506;-77
2023/05/04 07:11:20;;;;;;;5.13;3.67;;;13.30;58.60;;;13.09;51.26;98530.06;5093550;28;20460;-77
2023/05/04 07:13:48;;;;;;;8.30;3.60;;;13.40;58.50;;;13.36;51.29;98529.88;5090836;28;20466;-77
2023/05/04 07:16:15;;;;;;;5.37;3.67;;;13.60;58.70;;;13.80;50.23;98519.06;5067854;28;20451;-71
2023/05/04 07:18:42;;;;;;;5.53;3.50;;;13.80;58.50;;;14.21;49.12;98522.22;5091701;28;20549;-79
2023/05/04 07:21:10;;;;;;;7.20;3.37;;;14.10;58.00;;;13.90;49.19;98518.59;5071029;28;20766;-74
2023/05/04 07:23:39;;;;;;;5.27;3.83;;;14.30;57.00;;;14.33;48.93;98522.28;5088020;28;20449;-77
2023/05/04 07:26:07;;;;;;;4.90;3.90;;;14.40;57.30;;;14.39;48.30;98524.91;5087623;28;20449;-74
2023/05/04 07:28:35;;;;;;;3.73;3.30;;;14.60;56.70;;;14.54;48.75;98520.97;5094714;28;20502;-78
2023/05/04 07:31:02;;;;;;;3.67;3.33;;;14.60;56.60;;;14.68;48.44;98519.75;5072518;28;20477;-75
2023/05/04 07:33:30;;;;;;;4.17;3.30;;;14.80;56.60;;;14.76;47.01;98525.94;5072798;28;20490;-75
2023/05/04 07:35:58;;;;;;;3.30;3.00;;;14.90;55.60;;;14.41;47.00;98454.03;5088830;28;20938;-74
2023/05/04 07:38:25;;;;;;;5.87;4.23;;;15.10;55.10;;;14.93;46.66;98521.50;5094866;28;20466;-76
2023/05/04 07:40:55;;;;;;;5.47;3.47;;;15.10;54.70;;;14.71;46.00;98478.50;5086357;28;20467;-76
2023/05/04 07:43:23;;;;;;;4.10;2.90;;;15.20;54.20;;;14.87;46.59;98495.22;5065599;28;20768;-75
2023/05/04 07:45:53;;;;;;;3.73;3.30;;;15.10;54.30;;;15.09;45.17;98513.72;5090447;28;20458;-76
2023/05/04 07:48:20;;;;;;;4.10;3.70;;;15.30;53.80;;;14.97;45.28;98500.94;5081153;28;20454;-77
2023/05/04 07:50:49;;;;;;;3.40;3.10;;;15.30;53.10;;;14.94;46.19;98495.97;5066859;28;21000;-75
2023/05/04 07:53:16;;;;;;;4.47;3.43;;;15.20;53.30;;;14.95;45.87;98496.78;5066548;28;20467;-75
2023/05/04 07:55:43;;;;;;;7.20;3.83;;;15.20;53.10;;;15.38;44.90;98489.41;5071264;28;20868;-74
2023/05/04 07:58:14;;;;;;;4.50;3.60;;;15.40;52.90;;;15.23;45.00;98487.97;5085763;28;20550;-74
2023/05/04 08:00:41;;;;;;;4.40;3.87;;;15.50;53.00;;;14.82;45.08;98429.81;5061689;28;20517;-71
2023/05/04 08:03:08;;;;;;;4.77;3.47;;;15.40;52.60;;;15.42;45.19;98494.16;5088353;28;20480;-75
2023/05/04 08:05:35;;;;;;;4.43;3.57;;;15.60;52.90;;;15.54;44.75;98486.00;5087324;28;20954;-74
2023/05/04 08:08:02;;;;;;;4.73;3.70;;;15.70;52.50;;;15.51;44.79;98493.81;5083646;28;20468;-74
2023/05/04 08:10:30;;;;;;;6.10;3.50;;;15.70;52.50;;;15.47;45.24;98498.06;5095838;28;20464;-71
2023/05/04 08:12:57;;;;;;;4.23;3.70;;;15.70;52.50;;;15.49;45.13;98496.75;5095195;28;20506;-72
2023/05/04 08:15:26;;;;;;;4.50;3.80;;;15.70;52.50;;;15.55;44.63;98493.13;5092891;28;20574;-73
2023/05/04 08:17:53;;;;;;;5.13;4.10;;;15.80;52.30;;;15.63;44.69;98499.25;5071240;28;20475;-73
2023/05/04 08:20:20;;;;;;;3.83;3.53;;;15.80;52.20;;;15.46;45.80;98497.25;5066520;28;20453;-73
2023/05/04 08:22:48;;;;;;;5.20;3.93;;;15.70;52.50;;;15.83;44.85;98498.91;5070093;28;20457;-73
2023/05/04 08:25:16;;;;;;;4.83;4.30;;;15.90;52.50;;;16.14;43.84;98502.31;5087449;28;21119;-75
2023/05/04 08:27:45;;;;;;;4.80;4.13;;;16.20;52.20;;;16.33;43.75;98499.44;5100752;28;20508;-71
2023/05/04 08:30:13;;;;;;;4.03;3.27;;;16.30;51.90;;;16.25;43.54;98497.91;5095812;28;20737;-72
2023/05/04 08:32:41;;;;;;;4.40;4.00;;;16.40;51.40;;;16.34;43.52;98501.94;5088607;28;20443;-74
2023/05/04 08:35:09;;;;;;;4.27;3.90;;;16.50;51.70;;;16.74;42.90;98500.25;5067375;28;21250;-74
2023/05/04 08:37:36;;;;;;;4.97;3.83;;;16.70;51.60;;;16.90;42.58;98493.16;5067473;28;20866;-76
2023/05/04 08:40:04;;;;;;;3.90;3.50;;;16.90;51.40;;;16.40;43.77;98490.03;5068314;28;20463;-73
2023/05/04 08:42:33;;;;;;;4.63;4.23;;;16.80;51.40;;;16.22;44.31;98499.22;5086966;28;20450;-74
2023/05/04 08:45:01;;;;;;;4.73;3.90;;;16.60;51.50;;;15.71;44.70;98407.13;5085601;28;21013;-75
2023/05/04 08:47:29;;;;;;;4.40;4.00;;;16.50;52.00;;;15.99;44.38;98481.84;5065533;28;20963;-74
2023/05/04 08:49:58;;;;;;;5.43;3.90;;;16.40;51.70;;;16.29;44.56;98497.19;5067845;28;20787;-74
2023/05/04 08:52:26;;;;;;;4.17;3.07;;;16.50;52.00;;;16.41;44.53;98491.69;5084987;28;20512;-74
2023/05/04 08:54:55;;;;;;;6.00;4.33;;;16.60;52.10;;;16.68;43.73;98506.66;5089589;28;20494;-75
2023/05/04 08:57:24;;;;;;;3.37;2.93;;;16.80;52.00;;;16.91;43.28;98494.84;5073753;28;20552;-75
2023/05/04 08:59:53;;;;;;;4.27;3.87;;;17.00;51.50;;;16.80;43.47;98498.44;5085458;28;20516;-73
2023/05/04 09:02:23;;;;;;;4.47;3.93;;;17.00;51.40;;;16.82;42.70;98488.91;5084012;28;20442;-75
2023/05/04 09:04:51;;;;;;;5.10;4.10;;;17.10;50.80;;;16.71;42.46;98487.91;5066741;28;20451;-73
2023/05/04 09:07:21;;;;;;;4.43;3.90;;;17.00;50.40;;;16.57;43.13;98490.13;5083980;28;20531;-73
2023/05/04 09:09:50;;;;;;;3.80;3.40;;;16.90;50.60;;;16.77;42.08;98480.66;5090932;28;20438;-75
2023/05/04 09:12:18;;;;;;;4.00;3.57;;;17.00;50.10;;;16.88;42.34;98484.38;5066261;28;20502;-74
2023/05/04 09:14:46;;;;;;;4.47;4.07;;;17.10;50.40;;;16.81;42.23;98489.19;5086615;28;20443;-74
2023/05/04 09:17:15;;;;;;;4.93;4.17;;;17.10;50.10;;;16.58;41.66;98480.00;5082271;28;20546;-74
2023/05/04 09:19:43;;;;;;;4.47;3.20;;;16.90;49.60;;;16.92;42.16;98477.38;5084440;28;20543;-73
2023/05/04 09:22:20;;;;;;;3.57;3.27;;;17.00;50.00;;;16.94;41.67;98472.50;5084071;28;20547;-73
2023/05/04 09:24:47;;;;;;;5.63;4.57;;;17.10;49.90;;;17.09;40.56;98482.06;5088479;28;20458;-72
2023/05/04 09:27:16;;;;;;;5.90;3.60;;;17.20;48.90;;;17.38;40.42;98479.25;5057095;28;20529;-73
2023/05/04 09:29:44;;;;;;;4.97;3.70;;;17.40;49.10;;;17.49;40.38;98478.31;5082842;28;20963;-75
2023/05/04 09:32:14;;;;;;;4.63;3.97;;;17.50;49.00;;;17.75;39.82;98466.97;5078973;28;21049;-72
2023/05/04 09:34:49;;;;;;;3.40;3.10;;;17.70;48.90;;;17.53;39.33;98460.38;5074678;28;20547;-72
2023/05/04 09:37:20;;;;;;;4.20;3.63;;;17.70;48.10;;;17.17;39.64;98459.81;5075598;28;20455;-76
2023/05/04 09:39:54;;;;;;;4.00;3.43;;;17.50;47.70;;;17.20;40.49;98455.75;5082761;28;20540;-75
2023/05/04 09:42:23;;;;;;;3.47;2.93;;;17.40;48.40;;;17.36;40.55;98454.91;5065435;28;20930;-74
2023/05/04 09:45:01;;;;;;;5.23;3.23;;;17.40;48.70;;;17.16;39.78;98387.16;5065806;28;20747;-75
2023/05/04 09:47:37;;;;;;;3.63;3.33;;;17.60;48.30;;;17.63;39.82;98450.66;5081280;28;20489;-73
2023/05/04 09:50:15;;;;;;;3.10;2.80;;;17.60;48.30;;;17.87;37.92;98448.53;5083863;28;20448;-75
2023/05/04 09:52:45;;;;;;;3.10;2.43;;;17.80;46.90;;;18.03;36.86;98440.56;5080483;28;22084;-74
2023/05/04 09:55:14;;;;;;;5.60;3.50;;;18.00;46.30;;;17.87;37.53;98439.53;5085574;28;20463;-74
2023/05/04 09:57:43;;;;;;;3.50;3.20;;;18.00;46.30;;;17.81;37.48;98433.97;5065720;28;20517;-74
2023/05/04 10:00:12;;;;;;;3.97;3.57;;;17.90;46.10;;;17.64;38.13;98434.03;5066728;28;20474;-72
2023/05/04 10:02:39;;;;;;;3.30;3.00;;;17.80;46.30;;;17.76;37.22;98417.50;5080066;28;20463;-74
2023/05/04 10:05:08;;;;;;;2.87;2.67;;;17.80;45.90;;;17.86;36.78;98416.00;5083445;28;20531;-69
2023/05/04 10:07:37;;;;;;;3.73;3.10;;;17.90;45.40;;;17.56;37.01;98421.63;5058909;28;20475;-73
2023/05/04 10:10:08;;;;;;;3.57;2.73;;;17.70;45.10;;;18.02;37.16;98409.69;5082157;28;20458;-71
2023/05/04 10:12:35;;;;;;;3.37;3.07;;;17.90;45.80;;;17.90;36.68;98412.53;5080955;28;20849;-73
2023/05/04 10:15:06;;;;;;;3.30;2.97;;;18.10;45.50;;;17.81;36.91;98401.19;5083079;28;20451;-72
2023/05/04 10:17:50;;;;;;;3.43;3.10;;;18.10;45.40;;;18.19;37.09;98397.84;5058356;28;20441;-76
2023/05/04 10:20:44;;;;;;;3.33;3.03;;;18.10;45.70;;;18.40;36.99;98402.44;5079854;28;20844;-72
2023/05/04 10:23:36;;;;;;;3.50;3.20;;;18.40;45.90;;;18.67;36.40;98400.81;5060449;28;20554;-72
2023/05/04 10:26:38;;;;;;;2.87;2.57;;;18.60;45.60;;;18.38;34.64;98390.94;5064736;28;20990;-73
2023/05/04 10:29:13;;;;;;;2.50;2.30;;;18.70;44.20;;;18.48;34.79;98384.72;5081271;28;20452;-73
2023/05/04 10:31:42;;;;;;;3.70;3.17;;;18.50;43.80;;;18.44;35.23;98389.06;5055239;28;21181;-75